Clearfield, PA

1:30 PM EST on December 04, 2016 (GMT -0500)
Clearfield-Lawrence | | Change Station

Elev 1516 ft 41.05 °N, 78.41 °W | Updated 36 minutes ago

Overcast
Overcast
38 °F
Feels Like 34 °F
N
6
Wind Variable Wind from ENE

Today
High -- | Low -- °F
--% Chance of Precip.
Yesterday
High -- | Low -- °F
Precip. -- in
Pressure 30.22 in
Visibility 10.0 miles
Clouds Overcast 2900 ft
Windchill 34 °F
Dew Point 27 °F
Humidity 65%
Rainfall 0.01 in
Snow Depth Not available.
7:22 AM 4:45 PM
Waxing Crescent, 24% visible
METAR KFIG 041754Z AUTO 07005KT 10SM OVC029 03/M03 A3017 RMK AO2 SLP232 T00331028 10039 20011 58018 $
Pressure 30.22 in
Visibility 10.0 miles
Clouds Overcast 2900 ft
Windchill 34 °F
Dew Point 27 °F
Humidity 65%
Rainfall 0.01 in
Snow Depth Not available.
7:22 AM 4:45 PM
Waxing Crescent, 24% visible
METAR KFIG 041754Z AUTO 07005KT 10SM OVC029 03/M03 A3017 RMK AO2 SLP232 T00331028 10039 20011 58018 $

10-Day Weather Forecast

Almanac

Astronomy

Dec. 04, 2016 Rise Set
Actual Time
Civil Twilight
Nautical Twilight
Astronomical Twilight
Moon
Length of Visible Light
Length of Day
Tomorrow will be .
, % of the Moon is Illuminated

Today's Extremes

State Highs State Lows

Community

WunderPhotos

Upload Photos

1,955,639 photos uploaded!

WunderBlog® & News

Nearby

Air Quality

  Air Quality AQ Index Pollutant
Not available.

Snow Depth

Station Depth Elevation

Earthquake Activity

City Distance Mag. Time & Date
Minimum magnitude displayed is 2.5.

Coastal Water Temperatures

Place Temperature

Stations

Nearby Weather Stations

Station Location Temp. Windchill Dew Point Humidity Wind Precip. Elev Updated Type
                   

Watches & Warnings

There are currently no watches in effect.